Time;durP1;ratioP1;P1;durP2;ratioP2;P2;SDS_P1;SDS_P2;PMS_P1;PMS_P2;Temp;Humidity;BMP_temperature;BMP_pressure;BME280_temperature;BME280_humidity;BME280_pressure;Samples;Min_cycle;Max_cycle;Signal;HPM_P1;HPM_P2
2023/02/07 00:01:39;;;;;;;17.30;8.40;;;;;;;-4.00;67.21;103129.61;107663;1251;110503;-59
2023/02/07 00:04:07;;;;;;;14.80;8.30;;;;;;;-3.98;66.95;103131.73;107662;1254;109639;-61
2023/02/07 00:06:36;;;;;;;15.50;9.30;;;;;;;-3.95;67.06;103135.79;107642;1255;108306;-59
2023/02/07 00:09:07;;;;;;;15.60;9.30;;;;;;;-3.92;67.04;103138.62;107667;1254;96573;-60
2023/02/07 00:11:39;;;;;;;15.80;8.50;;;;;;;-3.88;66.84;103135.32;107686;1251;97020;-60
2023/02/07 00:14:10;;;;;;;16.90;9.50;;;;;;;-3.86;66.73;103134.64;107663;1254;110605;-59
2023/02/07 00:16:39;;;;;;;14.10;8.30;;;;;;;-3.87;66.63;103139.04;107627;1255;109308;-59
2023/02/07 00:19:08;;;;;;;13.00;8.20;;;;;;;-3.86;66.85;103139.02;107687;1255;107419;-59
2023/02/07 00:21:36;;;;;;;16.10;8.90;;;;;;;-3.84;66.75;103133.25;107648;1255;97159;-60
2023/02/07 00:24:05;;;;;;;18.80;8.50;;;;;;;-3.81;66.78;103133.11;107667;1254;97061;-61
2023/02/07 00:26:33;;;;;;;17.80;9.30;;;;;;;-3.79;66.61;103129.98;107679;1252;111024;-60
2023/02/07 00:29:03;;;;;;;16.10;9.10;;;;;;;-3.79;66.70;103129.80;107681;1254;109973;-60
2023/02/07 00:31:34;;;;;;;17.30;9.70;;;;;;;-3.81;66.41;103128.04;107634;1255;107805;-60
2023/02/07 00:34:05;;;;;;;17.90;9.90;;;;;;;-3.80;66.61;103125.94;107658;1254;96484;-59
2023/02/07 00:36:35;;;;;;;14.10;8.00;;;;;;;-3.81;66.11;103119.61;107631;1251;96523;-60
2023/02/07 00:39:11;;;;;;;17.10;8.20;;;;;;;-3.86;66.19;103120.09;107661;1254;110336;-60
2023/02/07 00:41:41;;;;;;;13.10;8.40;;;;;;;-3.83;66.47;103122.58;107639;1254;109292;-61
2023/02/07 00:44:09;;;;;;;14.80;8.30;;;;;;;-3.82;66.31;103119.27;107632;1253;108562;-60
2023/02/07 00:46:38;;;;;;;14.40;9.20;;;;;;;-3.82;66.27;103113.47;107613;1252;96472;-60
2023/02/07 00:49:07;;;;;;;15.80;8.80;;;;;;;-3.84;65.88;103107.83;107644;1254;96430;-60
2023/02/07 00:51:36;;;;;;;15.90;8.90;;;;;;;-3.86;66.29;103113.27;107626;1253;111004;-60
2023/02/07 00:54:05;;;;;;;15.80;9.30;;;;;;;-3.89;66.31;103113.93;107597;1254;109041;-59
2023/02/07 00:56:33;;;;;;;18.50;9.20;;;;;;;-3.90;66.16;103107.26;107467;1254;107699;-62
2023/02/07 00:59:02;;;;;;;15.30;9.10;;;;;;;-3.90;66.29;103112.52;107596;1254;96477;-59
2023/02/07 01:01:31;;;;;;;15.40;8.90;;;;;;;-3.90;66.56;103111.83;107487;1258;97022;-59
2023/02/07 01:03:59;;;;;;;18.30;9.50;;;;;;;-3.87;66.52;103113.77;107514;1254;111103;-60
2023/02/07 01:06:32;;;;;;;18.20;10.30;;;;;;;-3.88;66.42;103115.69;107592;1254;109714;-59
2023/02/07 01:09:03;;;;;;;16.50;8.50;;;;;;;-3.88;66.46;103114.47;107636;1254;107834;-60
2023/02/07 01:11:32;;;;;;;21.50;10.60;;;;;;;-3.88;66.58;103113.41;107583;1254;96586;-59
2023/02/07 01:14:01;;;;;;;36.50;14.30;;;;;;;-3.91;66.33;103116.55;107717;1254;96429;-60
2023/02/07 01:16:33;;;;;;;21.30;10.60;;;;;;;-3.93;66.75;103115.46;107619;1258;110923;-61
2023/02/07 01:19:05;;;;;;;20.80;10.70;;;;;;;-3.92;66.60;103115.48;107697;1254;110086;-61
2023/02/07 01:21:34;;;;;;;19.70;10.60;;;;;;;-3.93;66.75;103113.38;107612;1255;108848;-64
2023/02/07 01:24:05;;;;;;;21.90;10.20;;;;;;;-3.91;66.56;103109.52;107612;1253;96439;-59
2023/02/07 01:26:35;;;;;;;19.10;11.00;;;;;;;-3.88;66.29;103110.95;107643;1253;97183;-60
2023/02/07 01:29:04;;;;;;;21.80;10.50;;;;;;;-3.87;66.26;103109.73;107639;1254;111671;-59
2023/02/07 01:31:34;;;;;;;17.60;10.00;;;;;;;-3.81;66.96;103108.92;107673;1254;108030;-60
2023/02/07 01:34:02;;;;;;;19.10;10.40;;;;;;;-3.78;66.77;103111.05;107657;1255;108820;-60
2023/02/07 01:36:33;;;;;;;17.70;9.30;;;;;;;-3.76;66.22;103106.86;107586;1251;97120;-60
2023/02/07 01:39:02;;;;;;;18.90;10.30;;;;;;;-3.72;66.36;103107.77;107627;1254;96583;-61
2023/02/07 01:41:34;;;;;;;21.20;11.00;;;;;;;-3.70;66.71;103109.19;107622;1255;110717;-58
2023/02/07 01:44:07;;;;;;;19.20;11.00;;;;;;;-3.69;66.27;103107.10;107630;1254;110187;-59
2023/02/07 01:46:36;;;;;;;24.20;9.70;;;;;;;-3.68;66.55;103104.13;107620;1254;107836;-61
2023/02/07 01:49:09;;;;;;;19.70;10.60;;;;;;;-3.72;66.10;103107.93;107627;1254;96569;-59
2023/02/07 01:51:44;;;;;;;17.00;9.80;;;;;;;-3.76;66.11;103105.28;107520;1254;96574;-60
2023/02/07 01:54:15;;;;;;;22.70;11.50;;;;;;;-3.82;65.73;103106.98;107476;1254;110470;-61
2023/02/07 01:56:49;;;;;;;22.50;11.60;;;;;;;-3.84;66.12;103106.44;107591;1254;109424;-60
2023/02/07 01:59:17;;;;;;;19.40;10.50;;;;;;;-3.87;65.86;103106.06;107417;1259;108798;-59
2023/02/07 02:01:47;;;;;;;26.90;13.70;;;;;;;-3.89;66.19;103102.01;107452;1253;96578;-59
2023/02/07 02:04:18;;;;;;;25.90;12.20;;;;;;;-3.95;65.88;103104.23;107597;1254;96373;-60
2023/02/07 02:06:46;;;;;;;24.60;11.70;;;;;;;-4.03;66.08;103106.24;107467;1254;110465;-59
2023/02/07 02:09:15;;;;;;;24.90;12.10;;;;;;;-4.07;66.46;103103.39;107602;1254;110007;-60
2023/02/07 02:12:17;;;;;;;22.70;12.40;;;;;;;-4.09;66.43;103104.27;107577;1254;108769;-60
2023/02/07 02:15:08;;;;;;;19.30;10.40;;;;;;;-4.16;66.66;103102.45;107613;1256;96495;-60
2023/02/07 02:17:37;;;;;;;20.10;11.10;;;;;;;-4.21;66.72;103107.11;107601;1254;96481;-60
2023/02/07 02:20:52;;;;;;;22.10;12.40;;;;;;;-4.28;67.01;103097.94;107633;1254;109855;-60
2023/02/07 02:23:29;;;;;;;20.20;10.60;;;;;;;-4.34;67.42;103098.91;107655;1252;110306;-60
2023/02/07 02:26:29;;;;;;;20.00;12.10;;;;;;;-4.37;67.24;103104.84;107589;1254;108243;-58
2023/02/07 02:29:36;;;;;;;18.30;10.70;;;;;;;-4.41;67.36;103103.05;107596;1254;96473;-60
2023/02/07 02:32:26;;;;;;;20.80;9.90;;;;;;;-4.45;67.68;103103.88;107649;1251;96362;-60
2023/02/07 02:35:33;;;;;;;22.00;12.00;;;;;;;-4.47;67.43;103105.61;107673;1254;110736;-60
2023/02/07 02:38:27;;;;;;;24.30;11.60;;;;;;;-4.46;67.40;103105.25;107586;1256;109513;-59
2023/02/07 02:41:10;;;;;;;22.40;10.90;;;;;;;-4.51;67.57;103106.25;107654;1253;108630;-59
2023/02/07 02:43:50;;;;;;;20.00;11.60;;;;;;;-4.54;67.28;103109.02;107659;1254;97168;-60
2023/02/07 02:46:24;;;;;;;20.90;11.70;;;;;;;-4.59;67.66;103110.19;107577;1254;97010;-60
2023/02/07 02:48:55;;;;;;;20.70;11.20;;;;;;;-4.60;68.00;103111.92;107597;1254;110557;-60
2023/02/07 02:51:23;;;;;;;27.40;12.70;;;;;;;-4.61;68.04;103110.86;107537;1258;110351;-58
2023/02/07 02:53:53;;;;;;;25.30;12.80;;;;;;;-4.62;67.95;103104.37;107461;1254;108249;-60
2023/02/07 02:56:33;;;;;;;;;;;;;;;-4.63;67.60;103102.78;107602;1254;96495;-59
2023/02/07 02:59:23;;;;;;;22.70;11.10;;;;;;;-4.66;67.81;103102.39;107564;1254;96549;-59
2023/02/07 03:02:08;;;;;;;23.90;11.40;;;;;;;-4.67;67.82;103097.66;107594;1254;110986;-59
2023/02/07 03:04:51;;;;;;;19.70;10.80;;;;;;;-4.69;67.65;103094.13;107581;1255;109158;-57
2023/02/07 03:07:40;;;;;;;33.30;14.80;;;;;;;-4.68;67.79;103090.46;107580;1254;108688;-60
2023/02/07 03:10:16;;;;;;;27.60;13.10;;;;;;;-4.70;67.90;103091.65;107472;1254;95816;-60
2023/02/07 03:12:58;;;;;;;27.40;13.30;;;;;;;-4.72;67.84;103087.60;107382;1253;96512;-59
2023/02/07 03:15:42;;;;;;;24.40;14.20;;;;;;;-4.68;67.96;103088.91;107331;1256;109957;-59
2023/02/07 03:18:32;;;;;;;24.60;11.50;;;;;;;-4.71;67.71;103086.75;107480;1254;110935;-59
2023/02/07 03:21:06;;;;;;;23.70;12.50;;;;;;;-4.77;67.97;103081.78;107529;1254;108203;-59
2023/02/07 03:23:37;;;;;;;23.90;12.20;;;;;;;-4.76;67.91;103078.65;107357;1259;96715;-59
2023/02/07 03:26:07;;;;;;;23.60;11.00;;;;;;;-4.76;68.23;103076.53;107563;1253;96630;-59
2023/02/07 03:28:40;;;;;;;24.40;11.90;;;;;;;-4.77;68.02;103076.70;107557;1254;111073;-61
2023/02/07 03:31:13;;;;;;;25.30;12.40;;;;;;;-4.75;67.90;103078.83;107639;1254;110218;-60
2023/02/07 03:33:45;;;;;;;24.20;11.80;;;;;;;-4.73;68.04;103075.88;107561;1254;108855;-59
2023/02/07 03:36:37;;;;;;;26.20;12.80;;;;;;;-4.74;67.57;103079.89;107575;1256;96500;-59
2023/02/07 03:39:06;;;;;;;20.20;11.00;;;;;;;-4.76;67.98;103078.11;107574;1254;97068;-60
2023/02/07 03:41:43;;;;;;;26.40;12.80;;;;;;;-4.76;68.30;103074.61;107569;1254;110831;-58
2023/02/07 03:44:14;;;;;;;26.30;13.50;;;;;;;-4.78;68.78;103076.86;107560;1254;109765;-59
2023/02/07 03:46:42;;;;;;;26.60;13.00;;;;;;;-4.81;68.41;103074.02;107581;1254;108170;-61
2023/02/07 03:49:10;;;;;;;26.30;13.70;;;;;;;-4.83;68.81;103075.04;107538;1254;96518;-59
2023/02/07 03:51:39;;;;;;;26.30;13.40;;;;;;;-4.82;68.97;103070.32;107662;1254;97555;-58
2023/02/07 03:54:07;;;;;;;25.50;13.70;;;;;;;-4.85;69.43;103070.64;107677;1254;111122;-59
2023/02/07 03:56:36;;;;;;;29.10;13.80;;;;;;;-4.88;69.61;103069.38;107623;1251;109995;-61
2023/02/07 03:59:05;;;;;;;25.80;12.80;;;;;;;-4.87;69.66;103073.60;107633;1254;107664;-59
2023/02/07 04:01:39;;;;;;;22.60;13.00;;;;;;;-4.84;69.84;103073.98;107592;1254;96369;-60
2023/02/07 04:04:09;;;;;;;29.20;14.90;;;;;;;-4.81;69.87;103073.48;107624;1254;97052;-60
2023/02/07 04:06:38;;;;;;;30.80;14.10;;;;;;;-4.79;69.38;103072.65;107613;1254;110511;-60
2023/02/07 04:09:06;;;;;;;27.60;13.20;;;;;;;-4.79;69.89;103071.23;107630;1256;110675;-60
2023/02/07 04:11:37;;;;;;;25.50;13.20;;;;;;;-4.77;69.99;103064.61;107648;1255;108594;-60
2023/02/07 04:14:06;;;;;;;27.30;12.90;;;;;;;-4.75;69.97;103064.30;107583;1255;96461;-61
2023/02/07 04:16:34;;;;;;;23.80;10.90;;;;;;;-4.73;70.10;103062.23;107610;1255;96476;-59
2023/02/07 04:19:03;;;;;;;29.70;12.40;;;;;;;-4.75;70.15;103061.67;107641;1256;110699;-61
2023/02/07 04:21:31;;;;;;;25.40;13.20;;;;;;;-4.75;70.30;103056.94;107649;1254;109780;-60
2023/02/07 04:23:59;;;;;;;28.00;11.80;;;;;;;-4.78;70.21;103060.75;107626;1256;108531;-60
2023/02/07 04:26:28;;;;;;;28.30;13.90;;;;;;;-4.82;70.43;103060.17;107644;1256;96585;-60
2023/02/07 04:28:57;;;;;;;26.20;13.30;;;;;;;-4.83;70.62;103060.16;107637;1254;96465;-61
2023/02/07 04:31:26;;;;;;;31.60;14.40;;;;;;;-4.85;70.98;103059.61;107636;1254;109257;-59
2023/02/07 04:33:54;;;;;;;27.60;13.30;;;;;;;-4.88;71.61;103057.14;107662;1255;109224;-59
2023/02/07 04:36:23;;;;;;;26.70;13.50;;;;;;;-4.90;72.00;103061.13;107622;1256;108629;-60
2023/02/07 04:38:51;;;;;;;26.40;14.00;;;;;;;-4.92;72.58;103065.48;107545;1254;96530;-59
2023/02/07 04:41:19;;;;;;;27.30;15.10;;;;;;;-4.94;72.65;103062.31;107652;1255;96565;-60
2023/02/07 04:43:48;;;;;;;33.70;15.20;;;;;;;-4.97;73.43;103064.35;107639;1257;111505;-60
2023/02/07 04:46:16;;;;;;;29.50;14.80;;;;;;;-4.98;73.74;103064.86;107657;1256;109636;-59
2023/02/07 04:48:47;;;;;;;33.70;16.80;;;;;;;-4.95;73.56;103065.25;107674;1256;107610;-59
2023/02/07 04:51:15;;;;;;;34.60;15.90;;;;;;;-4.92;74.13;103065.99;107651;1255;96490;-59
2023/02/07 04:53:45;;;;;;;28.20;14.40;;;;;;;-4.93;74.78;103064.75;107694;1256;97016;-63
2023/02/07 04:56:13;;;;;;;33.80;16.70;;;;;;;-4.96;74.71;103063.14;107651;1256;108922;-60
2023/02/07 04:58:41;;;;;;;31.60;14.20;;;;;;;-5.00;75.64;103059.41;107652;1251;109651;-59
2023/02/07 05:01:10;;;;;;;28.10;13.90;;;;;;;-5.04;75.76;103049.40;107640;1254;108648;-62
2023/02/07 05:03:38;;;;;;;32.60;15.40;;;;;;;-5.07;76.16;103045.16;107638;1251;96710;-60
2023/02/07 05:06:07;;;;;;;35.20;17.40;;;;;;;-5.11;76.90;103046.69;107673;1254;97063;-60
2023/02/07 05:08:36;;;;;;;35.00;16.70;;;;;;;-5.14;77.31;103043.84;107661;1256;109306;-60
2023/02/07 05:11:06;;;;;;;37.30;18.80;;;;;;;-5.13;77.46;103042.45;107682;1254;107805;-60
2023/02/07 05:13:34;;;;;;;32.00;16.40;;;;;;;-5.14;77.69;103037.36;107663;1255;108385;-60
2023/02/07 05:16:03;;;;;;;31.50;13.80;;;;;;;-5.15;77.99;103040.67;107636;1255;96461;-60
2023/02/07 05:18:32;;;;;;;36.10;15.40;;;;;;;-5.15;78.16;103041.38;107612;1254;97013;-60
2023/02/07 05:21:00;;;;;;;30.00;15.10;;;;;;;-5.17;78.39;103043.80;107658;1253;111463;-59
2023/02/07 05:23:29;;;;;;;32.40;17.00;;;;;;;-5.17;78.24;103045.73;107674;1255;108741;-60
2023/02/07 05:25:57;;;;;;;28.80;14.80;;;;;;;-5.16;78.62;103043.63;107644;1254;108929;-62
2023/02/07 05:28:26;;;;;;;32.90;15.90;;;;;;;-5.15;78.54;103045.58;107609;1257;97816;-60
2023/02/07 05:30:57;;;;;;;34.20;16.20;;;;;;;-5.14;78.28;103047.69;107689;1254;98357;-61
2023/02/07 05:33:26;;;;;;;34.80;17.00;;;;;;;-5.10;78.16;103052.29;107667;1255;111418;-58
2023/02/07 05:35:55;;;;;;;31.60;15.20;;;;;;;-5.04;78.05;103050.80;107668;1255;110032;-61
2023/02/07 05:38:23;;;;;;;30.10;16.80;;;;;;;-4.98;78.28;103054.19;107638;1254;108398;-59
2023/02/07 05:40:51;;;;;;;32.30;16.90;;;;;;;-4.97;78.27;103051.58;107647;1254;97947;-60
2023/02/07 05:43:20;;;;;;;36.30;19.40;;;;;;;-4.94;78.12;103047.95;107627;1256;98011;-60
2023/02/07 05:45:48;;;;;;;35.90;17.30;;;;;;;-4.85;78.28;103053.83;107621;1255;111473;-62
2023/02/07 05:48:17;;;;;;;36.90;16.50;;;;;;;-4.76;77.90;103057.61;107664;1254;108701;-62
2023/02/07 05:50:46;;;;;;;34.10;17.70;;;;;;;-4.70;77.80;103058.57;107628;1255;107648;-60
2023/02/07 05:53:15;;;;;;;41.40;19.30;;;;;;;-4.62;77.77;103053.06;107678;1257;97909;-60
2023/02/07 05:55:43;;;;;;;35.60;17.90;;;;;;;-4.56;77.60;103055.23;107649;1254;98427;-59
2023/02/07 05:58:12;;;;;;;32.50;17.20;;;;;;;-4.50;77.77;103053.54;107684;1256;111706;-59
2023/02/07 06:00:41;;;;;;;32.20;17.30;;;;;;;-4.48;77.68;103053.39;107656;1256;109412;-61
2023/02/07 06:03:09;;;;;;;30.50;15.30;;;;;;;-4.44;77.39;103050.83;107643;1254;108468;-60
2023/02/07 06:05:38;;;;;;;30.40;15.90;;;;;;;-4.36;77.82;103050.19;107650;1255;98427;-60
2023/02/07 06:08:07;;;;;;;34.40;16.80;;;;;;;-4.30;77.81;103054.64;107678;1255;97870;-61
2023/02/07 06:10:36;;;;;;;31.10;16.40;;;;;;;-4.30;77.23;103051.84;107650;1254;111450;-60
2023/02/07 06:13:04;;;;;;;27.10;14.60;;;;;;;-4.26;77.46;103052.57;107635;1254;109982;-59
2023/02/07 06:15:32;;;;;;;30.40;14.70;;;;;;;-4.23;77.72;103056.98;107635;1254;109101;-60
2023/02/07 06:18:01;;;;;;;31.40;15.00;;;;;;;-4.21;77.32;103058.40;107625;1256;97944;-61
2023/02/07 06:20:29;;;;;;;26.50;15.20;;;;;;;-4.22;77.56;103060.49;107685;1254;97710;-61
2023/02/07 06:22:58;;;;;;;30.90;15.90;;;;;;;-4.24;77.50;103062.92;107679;1254;112312;-59
2023/02/07 06:25:26;;;;;;;31.70;15.80;;;;;;;-4.23;77.30;103061.35;107649;1255;109564;-61
2023/02/07 06:27:55;;;;;;;28.80;15.30;;;;;;;-4.26;77.82;103065.72;107605;1254;108425;-62
2023/02/07 06:30:24;;;;;;;32.50;15.20;;;;;;;-4.30;77.78;103064.27;107622;1254;97915;-59
2023/02/07 06:32:52;;;;;;;28.50;14.10;;;;;;;-4.32;77.78;103062.85;107676;1254;97886;-59
2023/02/07 06:35:21;;;;;;;29.40;14.70;;;;;;;-4.33;77.89;103064.77;107660;1254;112215;-59
2023/02/07 06:37:49;;;;;;;30.20;15.10;;;;;;;-4.34;78.44;103067.90;107656;1255;109646;-59
2023/02/07 06:40:18;;;;;;;30.00;14.80;;;;;;;-4.33;77.97;103071.24;107641;1253;108222;-60
2023/02/07 06:42:46;;;;;;;29.00;15.70;;;;;;;-4.33;78.43;103067.02;107658;1254;97841;-60
2023/02/07 06:45:15;;;;;;;26.10;13.20;;;;;;;-4.34;78.17;103064.76;107604;1254;97682;-60
2023/02/07 06:47:44;;;;;;;28.30;14.30;;;;;;;-4.32;78.09;103066.52;107671;1254;111624;-61
2023/02/07 06:50:12;;;;;;;32.80;14.00;;;;;;;-4.32;78.19;103061.45;107601;1257;111002;-61
2023/02/07 06:52:40;;;;;;;28.50;13.30;;;;;;;-4.29;78.05;103060.96;107580;1252;107738;-61
2023/02/07 06:55:09;;;;;;;26.70;14.20;;;;;;;-4.27;78.13;103052.91;107557;1254;97808;-61
2023/02/07 06:57:37;;;;;;;31.80;14.50;;;;;;;-4.24;78.03;103048.22;107577;1253;98572;-60
2023/02/07 07:00:07;;;;;;;24.90;12.30;;;;;;;-4.17;78.28;103047.40;107595;1254;111750;-60
2023/02/07 07:02:36;;;;;;;28.00;14.80;;;;;;;-4.13;78.02;103047.98;107601;1254;111051;-60
2023/02/07 07:05:05;;;;;;;31.00;14.30;;;;;;;-4.09;77.67;103044.33;107613;1254;108689;-59
2023/02/07 07:07:33;;;;;;;30.00;14.10;;;;;;;-4.01;78.07;103041.60;107569;1253;98471;-60
2023/02/07 07:10:02;;;;;;;27.40;14.20;;;;;;;-3.91;77.67;103040.11;107576;1253;98457;-58
2023/02/07 07:12:30;;;;;;;27.40;14.00;;;;;;;-3.82;77.61;103040.00;107551;1254;111685;-59
2023/02/07 07:14:59;;;;;;;32.40;16.50;;;;;;;-3.72;77.48;103040.60;107517;1254;109262;-60
2023/02/07 07:17:27;;;;;;;33.90;15.30;;;;;;;-3.60;77.31;103039.12;107431;1254;108226;-59
2023/02/07 07:19:57;;;;;;;29.50;14.20;;;;;;;-3.44;77.27;103031.52;107467;1254;97711;-60
2023/02/07 07:22:25;;;;;;;28.00;14.70;;;;;;;-3.28;77.06;103026.85;107488;1254;97826;-60
2023/02/07 07:24:54;;;;;;;26.80;14.10;;;;;;;-3.17;76.34;103033.23;107496;1253;111850;-60
2023/02/07 07:27:22;;;;;;;23.40;13.30;;;;;;;-3.14;75.34;103033.61;107480;1253;109840;-60
2023/02/07 07:29:51;;;;;;;28.00;12.80;;;;;;;-3.11;75.32;103032.23;107344;1254;108327;-60
2023/02/07 07:32:19;;;;;;;30.00;14.30;;;;;;;-3.09;74.91;103029.07;107568;1254;97848;-60
2023/02/07 07:35:02;;;;;;;29.10;14.20;;;;;;;-3.06;74.82;103030.66;107590;1254;97883;-60
2023/02/07 07:37:32;;;;;;;25.00;13.80;;;;;;;-2.98;75.28;103031.05;107499;1257;111440;-60
2023/02/07 07:40:00;;;;;;;30.70;14.80;;;;;;;-3.01;74.19;103029.45;107612;1254;108996;-60
2023/02/07 07:42:28;;;;;;;28.00;14.70;;;;;;;-2.99;74.58;103030.33;107577;1254;108988;-59
2023/02/07 07:45:15;;;;;;;30.40;16.10;;;;;;;-2.94;74.60;103026.86;107568;1256;97823;-60
2023/02/07 07:47:43;;;;;;;34.30;16.90;;;;;;;-2.94;74.07;103027.73;107602;1254;97949;-59
2023/02/07 07:50:12;;;;;;;28.10;15.30;;;;;;;-2.95;73.95;103027.73;107544;1254;112832;-60
2023/02/07 07:52:41;;;;;;;32.70;15.40;;;;;;;-2.93;74.17;103024.39;107576;1256;109769;-61
2023/02/07 07:55:10;;;;;;;32.80;15.50;;;;;;;-2.90;74.07;103025.11;107595;1253;108442;-59
2023/02/07 07:57:39;;;;;;;30.90;15.20;;;;;;;-2.90;74.08;103020.89;107546;1254;97839;-59
2023/02/07 08:00:09;;;;;;;32.60;16.60;;;;;;;-2.91;74.00;103019.14;107608;1254;99540;-60
2023/02/07 08:02:41;;;;;;;29.10;16.10;;;;;;;-2.86;74.58;103013.88;107532;1254;112723;-59
2023/02/07 08:05:10;;;;;;;37.00;16.70;;;;;;;-2.81;74.47;103013.55;107601;1254;110087;-61
2023/02/07 08:07:41;;;;;;;28.40;14.00;;;;;;;-2.78;74.34;103009.34;107659;1254;108614;-60
2023/02/07 08:10:09;;;;;;;34.50;16.00;;;;;;;-2.72;74.47;103009.89;107564;1252;97812;-61
2023/02/07 08:12:38;;;;;;;33.50;15.40;;;;;;;-2.67;73.92;103012.20;107540;1254;97810;-59
2023/02/07 08:15:09;;;;;;;32.80;16.80;;;;;;;-2.68;73.62;103009.38;107684;1253;110848;-59
2023/02/07 08:17:37;;;;;;;35.00;17.20;;;;;;;-2.61;73.98;103005.18;107649;1254;110095;-61
2023/02/07 08:20:06;;;;;;;40.50;16.00;;;;;;;-2.55;74.00;103003.09;107630;1254;108721;-61
2023/02/07 08:22:34;;;;;;;32.80;16.30;;;;;;;-2.47;73.98;102999.59;107593;1254;97839;-60
2023/02/07 08:25:04;;;;;;;39.90;17.80;;;;;;;-2.39;73.61;103000.13;107514;1254;98376;-63
2023/02/07 08:27:32;;;;;;;38.30;18.00;;;;;;;-2.35;73.34;103001.02;107555;1252;111877;-60
2023/02/07 08:30:01;;;;;;;37.80;17.30;;;;;;;-2.36;72.73;103001.36;107549;1254;109623;-60
2023/02/07 08:32:29;;;;;;;31.80;15.80;;;;;;;-2.39;72.55;103002.06;107465;1254;107160;-60
2023/02/07 08:34:58;;;;;;;37.30;18.00;;;;;;;-2.38;72.78;102996.64;107510;1254;98251;-62
2023/02/07 08:37:26;;;;;;;30.90;15.50;;;;;;;-2.30;73.00;102994.16;107569;1253;98464;-61
2023/02/07 08:39:56;;;;;;;32.20;17.10;;;;;;;-2.20;72.85;102988.73;107543;1254;111354;-60
2023/02/07 08:42:25;;;;;;;37.20;16.80;;;;;;;-2.12;72.61;102993.48;107645;1254;109253;-62
2023/02/07 08:44:53;;;;;;;32.50;15.90;;;;;;;-2.03;72.13;102992.42;107543;1254;107745;-60
2023/02/07 08:47:22;;;;;;;37.00;17.20;;;;;;;-1.96;71.76;102996.30;107634;1256;97924;-60
2023/02/07 08:49:50;;;;;;;34.70;18.00;;;;;;;-1.97;71.45;102997.35;107657;1251;97867;-59
2023/02/07 08:52:18;;;;;;;37.70;18.50;;;;;;;-1.91;71.10;102994.17;107681;1254;112210;-60
2023/02/07 08:54:47;;;;;;;35.40;17.30;;;;;;;-1.76;71.38;102996.63;107598;1254;109824;-61
2023/02/07 08:57:16;;;;;;;38.90;19.20;;;;;;;-1.61;70.81;102989.39;107571;1253;108731;-60
2023/02/07 08:59:44;;;;;;;42.00;18.20;;;;;;;-1.47;70.56;102988.14;107551;1251;97831;-59
2023/02/07 09:02:12;;;;;;;42.80;18.70;;;;;;;-1.33;69.91;102984.05;107580;1251;97896;-58
2023/02/07 09:04:42;;;;;;;40.30;20.30;;;;;;;-1.18;69.65;102983.12;107636;1254;111288;-60
2023/02/07 09:07:11;;;;;;;46.80;20.60;;;;;;;-1.13;68.98;102985.73;107553;1254;109998;-60
2023/02/07 09:09:39;;;;;;;41.30;19.40;;;;;;;-1.02;68.98;102987.63;107581;1253;108217;-60
2023/02/07 09:12:09;;;;;;;47.70;21.70;;;;;;;-0.96;68.75;102989.55;107581;1254;97814;-63
2023/02/07 09:14:38;;;;;;;33.10;17.60;;;;;;;-0.90;69.00;102987.41;107656;1254;98447;-61
2023/02/07 09:17:07;;;;;;;40.50;18.10;;;;;;;-1.00;68.15;102995.20;107666;1254;112407;-60
2023/02/07 09:19:36;;;;;;;44.90;19.00;;;;;;;-1.11;68.29;102993.13;107639;1251;110138;-60
2023/02/07 09:22:04;;;;;;;39.60;19.40;;;;;;;-1.15;68.62;102998.42;107572;1254;108685;-61
2023/02/07 09:24:32;;;;;;;40.00;20.70;;;;;;;-1.31;68.20;102997.23;107475;1254;97845;-60
2023/02/07 09:27:01;;;;;;;48.50;19.00;;;;;;;-1.44;68.83;103000.81;107501;1256;97717;-60
2023/02/07 09:29:30;;;;;;;40.80;21.20;;;;;;;-1.57;68.95;102997.12;107617;1254;111690;-61
2023/02/07 09:31:58;;;;;;;40.50;19.20;;;;;;;-1.65;69.66;102995.91;107596;1254;109117;-61
2023/02/07 09:34:27;;;;;;;40.20;20.50;;;;;;;-1.72;69.83;102996.80;107581;1256;108786;-60
2023/02/07 09:36:55;;;;;;;35.20;18.00;;;;;;;-1.76;69.98;102994.87;107649;1253;97879;-61
2023/02/07 09:39:25;;;;;;;41.40;20.50;;;;;;;-1.88;70.52;102992.60;107555;1251;97974;-61
2023/02/07 09:42:06;;;;;;;41.00;19.80;;;;;;;-1.92;70.28;102990.84;107469;1251;111361;-61
2023/02/07 09:45:06;;;;;;;46.50;20.20;;;;;;;-1.96;70.95;102982.76;107500;1254;109851;-60
2023/02/07 09:47:38;;;;;;;42.00;20.50;;;;;;;-1.96;71.36;102984.16;107564;1254;108611;-60
2023/02/07 09:50:19;;;;;;;42.00;20.50;;;;;;;-1.92;71.49;102981.34;107578;1251;97816;-61
2023/02/07 09:52:50;;;;;;;37.90;20.70;;;;;;;-1.93;71.45;102982.56;107583;1254;97710;-59
2023/02/07 09:55:39;;;;;;;43.40;22.80;;;;;;;-1.98;71.63;102980.98;107581;1254;111638;-60
2023/02/07 09:58:34;;;;;;;42.20;19.80;;;;;;;-2.01;72.06;102972.02;107421;1254;109064;-61
2023/02/07 10:01:20;;;;;;;40.80;19.80;;;;;;;-2.05;72.31;102969.73;107413;1255;108614;-60
2023/02/07 10:04:07;;;;;;;43.40;21.30;;;;;;;-2.03;72.51;102965.70;107556;1254;98555;-60
2023/02/07 10:06:40;;;;;;;45.20;22.30;;;;;;;-2.04;72.48;102963.95;107619;1254;98376;-59
2023/02/07 10:09:15;;;;;;;50.90;22.10;;;;;;;-1.96;72.72;102965.70;107573;1254;111471;-60
2023/02/07 10:12:04;;;;;;;40.40;21.20;;;;;;;-1.92;72.85;102964.45;107642;1251;109841;-62
2023/02/07 10:14:44;;;;;;;44.70;19.90;;;;;;;-1.99;72.75;102962.54;107609;1253;107679;-60
2023/02/07 10:17:40;;;;;;;50.80;22.00;;;;;;;-1.98;72.61;102961.83;107654;1253;97922;-59
2023/02/07 10:20:18;;;;;;;46.90;23.70;;;;;;;-1.96;72.90;102963.77;107667;1253;98360;-62
2023/02/07 10:22:52;;;;;;;50.60;24.30;;;;;;;-1.97;72.59;102960.08;107669;1254;112469;-62
2023/02/07 10:25:26;;;;;;;;;;;;;;;-1.97;72.92;102954.79;107618;1253;109366;-62
2023/02/07 10:28:13;;;;;;;55.40;23.90;;;;;;;-1.93;72.96;102950.91;107647;1254;108972;-65
2023/02/07 10:30:48;;;;;;;52.40;24.50;;;;;;;-1.88;73.25;102944.39;107650;1254;97834;-60
2023/02/07 10:33:30;;;;;;;48.70;24.20;;;;;;;-1.74;73.40;102943.50;107685;1253;98423;-62
2023/02/07 10:36:03;;;;;;;47.20;23.20;;;;;;;-1.63;72.96;102942.77;107627;1254;111643;-61
2023/02/07 10:38:40;;;;;;;49.80;22.10;;;;;;;-1.56;72.61;102944.69;107649;1254;110890;-61
2023/02/07 10:41:19;;;;;;;48.80;24.10;;;;;;;-1.52;72.83;102940.63;107634;1254;108234;-60
2023/02/07 10:43:47;;;;;;;45.00;21.90;;;;;;;-1.50;72.45;102940.45;107601;1253;98534;-61
2023/02/07 10:46:19;;;;;;;40.60;20.90;;;;;;;-1.48;72.51;102937.27;107040;1253;757394;-61
2023/02/07 10:48:48;;;;;;;44.90;21.60;;;;;;;-1.42;72.60;102937.79;107673;1254;112093;-61
2023/02/07 10:51:30;;;;;;;40.90;20.50;;;;;;;-1.33;72.60;102942.50;107620;1254;110120;-61
2023/02/07 10:54:08;;;;;;;40.30;21.30;;;;;;;-1.35;72.23;102942.86;107635;1254;108312;-60
2023/02/07 10:56:41;;;;;;;41.90;21.80;;;;;;;-1.40;72.44;102940.23;107618;1254;97954;-61
2023/02/07 10:59:37;;;;;;;42.60;20.20;;;;;;;-1.40;72.43;102936.55;107685;1254;97730;-60
2023/02/07 11:02:27;;;;;;;39.30;19.80;;;;;;;-1.37;72.41;102932.48;107680;1253;110803;-61
2023/02/07 11:05:17;;;;;;;41.20;21.40;;;;;;;-1.38;72.45;102929.31;107665;1254;109060;-59
2023/02/07 11:08:03;;;;;;;40.90;20.80;;;;;;;-1.44;72.41;102922.30;107629;1256;108559;-60
2023/02/07 11:10:38;;;;;;;41.40;20.20;;;;;;;-1.47;72.84;102923.37;107636;1254;97851;-61
2023/02/07 11:13:20;;;;;;;40.10;18.70;;;;;;;-1.59;73.01;102927.45;107675;1254;98402;-61
2023/02/07 11:15:51;;;;;;;43.50;21.30;;;;;;;-1.72;73.29;102930.13;107632;1254;111412;-60
2023/02/07 11:18:23;;;;;;;45.20;21.80;;;;;;;-1.69;73.73;102927.14;107592;1254;110042;-62
2023/02/07 11:20:54;;;;;;;56.90;23.70;;;;;;;-1.68;73.85;102922.19;107652;1254;108266;-60
2023/02/07 11:23:24;;;;;;;51.90;22.60;;;;;;;-1.70;74.01;102922.90;107634;1254;97851;-60